sensor_id;sensor_type;location;lat;lon;timestamp;pressure;altitude;pressure_sealevel;temperature;humidity
20119;BME280;10220;42.716;23.306;2023-02-14T00:01:50;96738.72;;;2.13;100.00
20119;BME280;10220;42.716;23.306;2023-02-14T00:04:17;96736.88;;;2.15;100.00
20119;BME280;10220;42.716;23.306;2023-02-14T00:06:43;96745.72;;;2.33;100.00
20119;BME280;10220;42.716;23.306;2023-02-14T00:09:13;96740.03;;;2.40;100.00
20119;BME280;10220;42.716;23.306;2023-02-14T00:11:40;96702.38;;;2.31;100.00
20119;BME280;10220;42.716;23.306;2023-02-14T00:14:05;96740.16;;;2.49;100.00
20119;BME280;10220;42.716;23.306;2023-02-14T00:16:50;96725.50;;;2.62;100.00
20119;BME280;10220;42.716;23.306;2023-02-14T00:19:17;96748.97;;;2.67;100.00
20119;BME280;10220;42.716;23.306;2023-02-14T00:21:44;96743.63;;;2.37;100.00
20119;BME280;10220;42.716;23.306;2023-02-14T00:24:12;96674.03;;;2.12;100.00
20119;BME280;10220;42.716;23.306;2023-02-14T00:26:38;96726.69;;;2.47;100.00
20119;BME280;10220;42.716;23.306;2023-02-14T00:29:05;96732.50;;;2.60;100.00
20119;BME280;10220;42.716;23.306;2023-02-14T00:31:33;96726.78;;;2.57;100.00
20119;BME280;10220;42.716;23.306;2023-02-14T00:33:59;96716.34;;;2.71;100.00
20119;BME280;10220;42.716;23.306;2023-02-14T00:36:25;96694.47;;;2.67;100.00
20119;BME280;10220;42.716;23.306;2023-02-14T00:38:50;96722.59;;;2.89;100.00
20119;BME280;10220;42.716;23.306;2023-02-14T00:41:16;96658.91;;;2.53;100.00
20119;BME280;10220;42.716;23.306;2023-02-14T00:43:45;96736.78;;;2.92;100.00
20119;BME280;10220;42.716;23.306;2023-02-14T00:46:12;96730.00;;;3.02;100.00
20119;BME280;10220;42.716;23.306;2023-02-14T00:48:37;96730.00;;;3.02;100.00
20119;BME280;10220;42.716;23.306;2023-02-14T00:51:03;96726.75;;;3.00;100.00
20119;BME280;10220;42.716;23.306;2023-02-14T00:53:28;96727.56;;;3.12;100.00
20119;BME280;10220;42.716;23.306;2023-02-14T00:55:54;96700.56;;;3.19;100.00
20119;BME280;10220;42.716;23.306;2023-02-14T00:58:19;96719.97;;;3.21;100.00
20119;BME280;10220;42.716;23.306;2023-02-14T01:00:44;96698.63;;;3.00;100.00
20119;BME280;10220;42.716;23.306;2023-02-14T01:03:10;96709.78;;;3.10;100.00
20119;BME280;10220;42.716;23.306;2023-02-14T01:05:35;96695.47;;;2.97;100.00
20119;BME280;10220;42.716;23.306;2023-02-14T01:08:01;96699.22;;;3.04;100.00
20119;BME280;10220;42.716;23.306;2023-02-14T01:10:26;96706.63;;;3.07;100.00
20119;BME280;10220;42.716;23.306;2023-02-14T01:12:52;96697.91;;;3.09;100.00
20119;BME280;10220;42.716;23.306;2023-02-14T01:15:17;96715.00;;;3.09;100.00
20119;BME280;10220;42.716;23.306;2023-02-14T01:17:43;96626.91;;;2.80;100.00
20119;BME280;10220;42.716;23.306;2023-02-14T01:20:08;96640.69;;;2.99;100.00
20119;BME280;10220;42.716;23.306;2023-02-14T01:22:37;96676.06;;;2.94;100.00
20119;BME280;10220;42.716;23.306;2023-02-14T01:25:03;96682.56;;;3.09;100.00
20119;BME280;10220;42.716;23.306;2023-02-14T01:27:29;96685.91;;;3.10;100.00
20119;BME280;10220;42.716;23.306;2023-02-14T01:29:55;96625.66;;;2.75;100.00
20119;BME280;10220;42.716;23.306;2023-02-14T01:32:20;96687.16;;;3.15;100.00
20119;BME280;10220;42.716;23.306;2023-02-14T01:34:45;96668.91;;;3.20;100.00
20119;BME280;10220;42.716;23.306;2023-02-14T01:37:12;96682.56;;;3.09;100.00
20119;BME280;10220;42.716;23.306;2023-02-14T01:39:38;96656.97;;;3.09;100.00
20119;BME280;10220;42.716;23.306;2023-02-14T01:42:04;96656.78;;;3.22;100.00
20119;BME280;10220;42.716;23.306;2023-02-14T01:46:59;96600.16;;;2.95;100.00
20119;BME280;10220;42.716;23.306;2023-02-14T01:49:29;96612.47;;;3.21;100.00
20119;BME280;10220;42.716;23.306;2023-02-14T01:54:28;96591.88;;;2.91;100.00
20119;BME280;10220;42.716;23.306;2023-02-14T01:56:58;96582.25;;;2.84;100.00
20119;BME280;10220;42.716;23.306;2023-02-14T01:59:27;96654.63;;;3.06;100.00
20119;BME280;10220;42.716;23.306;2023-02-14T02:01:55;96654.28;;;3.11;100.00
20119;BME280;10220;42.716;23.306;2023-02-14T02:04:31;96599.97;;;2.76;100.00
20119;BME280;10220;42.716;23.306;2023-02-14T02:07:03;96659.66;;;3.08;100.00
20119;BME280;10220;42.716;23.306;2023-02-14T02:09:34;96651.06;;;2.98;100.00
20119;BME280;10220;42.716;23.306;2023-02-14T02:12:02;96651.00;;;3.09;100.00
20119;BME280;10220;42.716;23.306;2023-02-14T02:14:27;96644.50;;;3.16;100.00
20119;BME280;10220;42.716;23.306;2023-02-14T02:24:47;96635.78;;;3.18;100.00
20119;BME280;10220;42.716;23.306;2023-02-14T02:46:42;96601.44;;;3.21;100.00
20119;BME280;10220;42.716;23.306;2023-02-14T02:49:25;96601.97;;;3.04;100.00
20119;BME280;10220;42.716;23.306;2023-02-14T02:55:50;96608.09;;;3.12;100.00
20119;BME280;10220;42.716;23.306;2023-02-14T02:59:03;96619.97;;;3.02;100.00
20119;BME280;10220;42.716;23.306;2023-02-14T03:01:34;96614.34;;;2.88;100.00
20119;BME280;10220;42.716;23.306;2023-02-14T03:04:05;96631.31;;;2.89;100.00
20119;BME280;10220;42.716;23.306;2023-02-14T03:06:50;96624.44;;;3.00;100.00
20119;BME280;10220;42.716;23.306;2023-02-14T03:17:29;96602.00;;;2.93;100.00
20119;BME280;10220;42.716;23.306;2023-02-14T03:23:11;96589.59;;;2.89;100.00
20119;BME280;10220;42.716;23.306;2023-02-14T03:25:56;96586.91;;;2.90;100.00
20119;BME280;10220;42.716;23.306;2023-02-14T03:33:51;96582.84;;;2.88;100.00
20119;BME280;10220;42.716;23.306;2023-02-14T03:36:49;96588.28;;;2.94;100.00
20119;BME280;10220;42.716;23.306;2023-02-14T03:39:30;96599.41;;;2.62;100.00
20119;BME280;10220;42.716;23.306;2023-02-14T03:42:03;96579.03;;;2.71;100.00
20119;BME280;10220;42.716;23.306;2023-02-14T03:44:32;96592.50;;;2.84;100.00
20119;BME280;10220;42.716;23.306;2023-02-14T03:47:03;96512.88;;;2.46;100.00
20119;BME280;10220;42.716;23.306;2023-02-14T03:49:33;96589.94;;;2.84;100.00
20119;BME280;10220;42.716;23.306;2023-02-14T03:52:01;96583.09;;;2.74;100.00
20119;BME280;10220;42.716;23.306;2023-02-14T03:54:29;96561.47;;;2.78;100.00
20119;BME280;10220;42.716;23.306;2023-02-14T03:57:19;96557.72;;;2.82;100.00
20119;BME280;10220;42.716;23.306;2023-02-14T03:59:47;96552.41;;;2.85;100.00
20119;BME280;10220;42.716;23.306;2023-02-14T04:02:18;96529.91;;;2.68;100.00
20119;BME280;10220;42.716;23.306;2023-02-14T04:04:48;96561.25;;;2.81;100.00
20119;BME280;10220;42.716;23.306;2023-02-14T04:07:17;96539.94;;;2.60;100.00
20119;BME280;10220;42.716;23.306;2023-02-14T04:09:43;96493.84;;;2.39;100.00
20119;BME280;10220;42.716;23.306;2023-02-14T04:12:08;96560.78;;;2.76;100.00
20119;BME280;10220;42.716;23.306;2023-02-14T04:14:34;96556.19;;;2.90;100.00
20119;BME280;10220;42.716;23.306;2023-02-14T04:17:00;96548.69;;;2.78;100.00
20119;BME280;10220;42.716;23.306;2023-02-14T04:19:43;96512.81;;;2.68;100.00
20119;BME280;10220;42.716;23.306;2023-02-14T04:22:09;96556.06;;;2.91;100.00
20119;BME280;10220;42.716;23.306;2023-02-14T04:24:34;96564.69;;;2.90;100.00
20119;BME280;10220;42.716;23.306;2023-02-14T04:27:00;96565.59;;;2.89;100.00
20119;BME280;10220;42.716;23.306;2023-02-14T04:29:36;96569.31;;;2.96;100.00
20119;BME280;10220;42.716;23.306;2023-02-14T04:32:02;96547.09;;;2.66;100.00
20119;BME280;10220;42.716;23.306;2023-02-14T04:34:27;96546.31;;;2.65;100.00
20119;BME280;10220;42.716;23.306;2023-02-14T04:36:53;96557.84;;;2.80;100.00
20119;BME280;10220;42.716;23.306;2023-02-14T04:39:18;96516.06;;;2.70;100.00
20119;BME280;10220;42.716;23.306;2023-02-14T04:41:44;96555.94;;;2.93;100.00
20119;BME280;10220;42.716;23.306;2023-02-14T04:44:09;96510.81;;;2.40;100.00
20119;BME280;10220;42.716;23.306;2023-02-14T04:46:35;96529.06;;;2.67;100.00
20119;BME280;10220;42.716;23.306;2023-02-14T04:49:00;96537.13;;;2.63;100.00
20119;BME280;10220;42.716;23.306;2023-02-14T04:51:25;96538.56;;;2.56;100.00
20119;BME280;10220;42.716;23.306;2023-02-14T04:53:51;96539.94;;;2.49;100.00
20119;BME280;10220;42.716;23.306;2023-02-14T04:56:16;96530.91;;;2.45;100.00
20119;BME280;10220;42.716;23.306;2023-02-14T04:58:42;96516.72;;;2.41;100.00
20119;BME280;10220;42.716;23.306;2023-02-14T05:01:07;96533.44;;;2.45;100.00
20119;BME280;10220;42.716;23.306;2023-02-14T05:03:32;96462.34;;;2.08;100.00
20119;BME280;10220;42.716;23.306;2023-02-14T05:05:58;96499.91;;;2.38;100.00
20119;BME280;10220;42.716;23.306;2023-02-14T05:08:23;96541.78;;;2.58;100.00
20119;BME280;10220;42.716;23.306;2023-02-14T05:10:48;96546.22;;;2.56;100.00
20119;BME280;10220;42.716;23.306;2023-02-14T05:13:14;96533.31;;;2.46;100.00
20119;BME280;10220;42.716;23.306;2023-02-14T05:15:39;96530.38;;;2.62;100.00
20119;BME280;10220;42.716;23.306;2023-02-14T05:18:05;96491.66;;;2.35;100.00
20119;BME280;10220;42.716;23.306;2023-02-14T05:20:31;96524.59;;;2.60;100.00
20119;BME280;10220;42.716;23.306;2023-02-14T05:22:57;96528.53;;;2.64;100.00
20119;BME280;10220;42.716;23.306;2023-02-14T05:25:28;96533.53;;;2.65;100.00
20119;BME280;10220;42.716;23.306;2023-02-14T05:27:54;96456.28;;;2.20;100.00
20119;BME280;10220;42.716;23.306;2023-02-14T05:30:19;96544.53;;;2.66;100.00
20119;BME280;10220;42.716;23.306;2023-02-14T05:32:50;96531.19;;;2.62;100.00
20119;BME280;10220;42.716;23.306;2023-02-14T05:35:16;96535.28;;;2.54;100.00
20119;BME280;10220;42.716;23.306;2023-02-14T05:37:41;96540.84;;;2.59;100.00
20119;BME280;10220;42.716;23.306;2023-02-14T05:40:07;96522.25;;;2.57;100.00
20119;BME280;10220;42.716;23.306;2023-02-14T05:42:33;96528.66;;;2.51;100.00
20119;BME280;10220;42.716;23.306;2023-02-14T05:44:59;96540.59;;;2.62;100.00
20119;BME280;10220;42.716;23.306;2023-02-14T05:47:24;96533.84;;;2.72;100.00
20119;BME280;10220;42.716;23.306;2023-02-14T05:49:49;96504.41;;;2.46;100.00
20119;BME280;10220;42.716;23.306;2023-02-14T05:52:15;96524.22;;;2.64;100.00
20119;BME280;10220;42.716;23.306;2023-02-14T05:54:40;96540.78;;;2.81;100.00
20119;BME280;10220;42.716;23.306;2023-02-14T05:57:06;96523.00;;;2.99;100.00
20119;BME280;10220;42.716;23.306;2023-02-14T05:59:31;96519.09;;;2.95;100.00
20119;BME280;10220;42.716;23.306;2023-02-14T06:01:57;96523.53;;;3.14;100.00
20119;BME280;10220;42.716;23.306;2023-02-14T06:04:22;96535.19;;;3.07;100.00
20119;BME280;10220;42.716;23.306;2023-02-14T06:06:47;96545.84;;;2.91;100.00
20119;BME280;10220;42.716;23.306;2023-02-14T06:09:13;96503.50;;;2.67;100.00
20119;BME280;10220;42.716;23.306;2023-02-14T06:11:39;96536.66;;;2.89;100.00
20119;BME280;10220;42.716;23.306;2023-02-14T06:14:04;96545.53;;;2.85;100.00
20119;BME280;10220;42.716;23.306;2023-02-14T06:16:30;96565.44;;;3.02;100.00
20119;BME280;10220;42.716;23.306;2023-02-14T06:18:55;96547.47;;;3.13;100.00
20119;BME280;10220;42.716;23.306;2023-02-14T06:21:21;96518.59;;;3.01;100.00
20119;BME280;10220;42.716;23.306;2023-02-14T06:23:46;96488.44;;;3.05;100.00
20119;BME280;10220;42.716;23.306;2023-02-14T06:26:12;96555.75;;;3.37;100.00
20119;BME280;10220;42.716;23.306;2023-02-14T06:28:37;96539.81;;;3.33;100.00
20119;BME280;10220;42.716;23.306;2023-02-14T06:31:03;96551.16;;;3.40;100.00
20119;BME280;10220;42.716;23.306;2023-02-14T06:33:29;96546.94;;;3.50;100.00
20119;BME280;10220;42.716;23.306;2023-02-14T06:35:54;96537.25;;;3.53;100.00
20119;BME280;10220;42.716;23.306;2023-02-14T06:38:20;96519.91;;;3.37;100.00
20119;BME280;10220;42.716;23.306;2023-02-14T06:40:45;96546.19;;;3.39;100.00
20119;BME280;10220;42.716;23.306;2023-02-14T06:43:11;96535.75;;;3.51;100.00
20119;BME280;10220;42.716;23.306;2023-02-14T06:45:36;96539.34;;;3.69;100.00
20119;BME280;10220;42.716;23.306;2023-02-14T06:48:01;96532.03;;;3.64;100.00
20119;BME280;10220;42.716;23.306;2023-02-14T06:50:28;96510.44;;;3.57;100.00
20119;BME280;10220;42.716;23.306;2023-02-14T06:52:53;96535.53;;;3.63;100.00
20119;BME280;10220;42.716;23.306;2023-02-14T06:55:18;96529.13;;;3.69;100.00
20119;BME280;10220;42.716;23.306;2023-02-14T06:57:44;96522.38;;;3.68;100.00
20119;BME280;10220;42.716;23.306;2023-02-14T07:00:10;96468.44;;;3.40;100.00
20119;BME280;10220;42.716;23.306;2023-02-14T07:02:36;96501.94;;;3.57;100.00
20119;BME280;10220;42.716;23.306;2023-02-14T07:05:01;96492.69;;;3.36;100.00
20119;BME280;10220;42.716;23.306;2023-02-14T07:07:27;96371.09;;;2.50;100.00
20119;BME280;10220;42.716;23.306;2023-02-14T07:09:52;96458.47;;;3.37;100.00
20119;BME280;10220;42.716;23.306;2023-02-14T07:12:18;96493.06;;;3.61;100.00
20119;BME280;10220;42.716;23.306;2023-02-14T07:14:43;96508.84;;;3.66;100.00
20119;BME280;10220;42.716;23.306;2023-02-14T07:17:08;96455.34;;;3.33;100.00
20119;BME280;10220;42.716;23.306;2023-02-14T07:19:34;96485.09;;;3.54;100.00
20119;BME280;10220;42.716;23.306;2023-02-14T07:21:59;96495.63;;;3.61;100.00
20119;BME280;10220;42.716;23.306;2023-02-14T07:24:25;96493.84;;;3.52;100.00
20119;BME280;10220;42.716;23.306;2023-02-14T07:26:50;96472.47;;;3.33;100.00
20119;BME280;10220;42.716;23.306;2023-02-14T07:29:16;96504.00;;;3.63;100.00
20119;BME280;10220;42.716;23.306;2023-02-14T07:31:41;96456.44;;;3.40;100.00
20119;BME280;10220;42.716;23.306;2023-02-14T07:34:07;96513.06;;;3.67;100.00
20119;BME280;10220;42.716;23.306;2023-02-14T07:36:32;96523.09;;;3.79;100.00
20119;BME280;10220;42.716;23.306;2023-02-14T07:38:58;96495.75;;;3.59;100.00
20119;BME280;10220;42.716;23.306;2023-02-14T07:41:23;96498.75;;;3.64;100.00
20119;BME280;10220;42.716;23.306;2023-02-14T07:43:49;96488.97;;;3.49;100.00
20119;BME280;10220;42.716;23.306;2023-02-14T07:46:14;96448.34;;;3.35;100.00
20119;BME280;10220;42.716;23.306;2023-02-14T07:48:41;96510.63;;;3.65;100.00
20119;BME280;10220;42.716;23.306;2023-02-14T07:51:07;96528.84;;;3.72;100.00
20119;BME280;10220;42.716;23.306;2023-02-14T07:53:32;96458.69;;;3.34;100.00
20119;BME280;10220;42.716;23.306;2023-02-14T07:55:57;96476.81;;;3.42;100.00
20119;BME280;10220;42.716;23.306;2023-02-14T07:58:23;96539.84;;;3.63;100.00
20119;BME280;10220;42.716;23.306;2023-02-14T08:00:48;96484.34;;;3.13;100.00
20119;BME280;10220;42.716;23.306;2023-02-14T08:03:15;96526.25;;;3.42;100.00
20119;BME280;10220;42.716;23.306;2023-02-14T08:05:41;96517.97;;;3.49;100.00
20119;BME280;10220;42.716;23.306;2023-02-14T08:08:06;96544.81;;;3.55;100.00
20119;BME280;10220;42.716;23.306;2023-02-14T08:10:31;96514.53;;;3.40;100.00
20119;BME280;10220;42.716;23.306;2023-02-14T08:12:57;96542.53;;;3.61;100.00
20119;BME280;10220;42.716;23.306;2023-02-14T08:15:24;96552.28;;;3.67;100.00
20119;BME280;10220;42.716;23.306;2023-02-14T08:18:08;96531.47;;;3.61;100.00
20119;BME280;10220;42.716;23.306;2023-02-14T08:20:33;96540.78;;;3.62;100.00
20119;BME280;10220;42.716;23.306;2023-02-14T08:22:59;96568.97;;;3.62;100.00
20119;BME280;10220;42.716;23.306;2023-02-14T08:25:24;96526.66;;;3.67;100.00
20119;BME280;10220;42.716;23.306;2023-02-14T08:27:50;96559.47;;;3.73;100.00
20119;BME280;10220;42.716;23.306;2023-02-14T08:30:15;96560.03;;;3.77;100.00
20119;BME280;10220;42.716;23.306;2023-02-14T08:32:41;96547.88;;;3.79;100.00
20119;BME280;10220;42.716;23.306;2023-02-14T08:35:06;96544.34;;;3.70;100.00
20119;BME280;10220;42.716;23.306;2023-02-14T08:37:32;96543.34;;;3.62;100.00
20119;BME280;10220;42.716;23.306;2023-02-14T08:39:57;96541.91;;;3.69;100.00
20119;BME280;10220;42.716;23.306;2023-02-14T08:42:23;96483.41;;;3.44;100.00
20119;BME280;10220;42.716;23.306;2023-02-14T08:44:48;96561.25;;;3.82;100.00
20119;BME280;10220;42.716;23.306;2023-02-14T08:47:14;96494.66;;;3.32;100.00
20119;BME280;10220;42.716;23.306;2023-02-14T08:49:39;96558.97;;;3.59;100.00
20119;BME280;10220;42.716;23.306;2023-02-14T08:52:04;96542.28;;;3.44;100.00
20119;BME280;10220;42.716;23.306;2023-02-14T08:54:30;96539.88;;;3.43;100.00
20119;BME280;10220;42.716;23.306;2023-02-14T08:56:56;96512.59;;;3.32;100.00
20119;BME280;10220;42.716;23.306;2023-02-14T08:59:21;96502.31;;;3.23;100.00
20119;BME280;10220;42.716;23.306;2023-02-14T09:01:47;96518.28;;;3.36;100.00
20119;BME280;10220;42.716;23.306;2023-02-14T09:04:12;96555.78;;;3.66;100.00
20119;BME280;10220;42.716;23.306;2023-02-14T09:06:38;96464.16;;;3.20;100.00
20119;BME280;10220;42.716;23.306;2023-02-14T09:09:04;96540.13;;;3.60;100.00
20119;BME280;10220;42.716;23.306;2023-02-14T09:11:29;96545.09;;;3.61;100.00
20119;BME280;10220;42.716;23.306;2023-02-14T09:13:56;96562.78;;;3.64;100.00
20119;BME280;10220;42.716;23.306;2023-02-14T09:16:22;96470.84;;;3.32;100.00
20119;BME280;10220;42.716;23.306;2023-02-14T09:18:48;96529.78;;;3.71;100.00
20119;BME280;10220;42.716;23.306;2023-02-14T09:21:17;96530.94;;;3.57;100.00
20119;BME280;10220;42.716;23.306;2023-02-14T09:23:43;96525.59;;;3.70;100.00
20119;BME280;10220;42.716;23.306;2023-02-14T09:26:10;96520.22;;;3.73;100.00
20119;BME280;10220;42.716;23.306;2023-02-14T09:28:36;96507.88;;;3.57;100.00
20119;BME280;10220;42.716;23.306;2023-02-14T09:31:16;96542.28;;;3.64;100.00
20119;BME280;10220;42.716;23.306;2023-02-14T09:33:43;96548.41;;;3.73;100.00
20119;BME280;10220;42.716;23.306;2023-02-14T09:36:27;96515.19;;;3.62;100.00
20119;BME280;10220;42.716;23.306;2023-02-14T09:39:11;96538.97;;;3.73;100.00
20119;BME280;10220;42.716;23.306;2023-02-14T09:47:08;96475.91;;;3.22;100.00
20119;BME280;10220;42.716;23.306;2023-02-14T09:49:37;96535.75;;;3.51;100.00
20119;BME280;10220;42.716;23.306;2023-02-14T09:52:06;96534.38;;;3.47;100.00
20119;BME280;10220;42.716;23.306;2023-02-14T09:54:36;96518.72;;;3.41;100.00
20119;BME280;10220;42.716;23.306;2023-02-14T09:57:10;96532.06;;;3.44;100.00
20119;BME280;10220;42.716;23.306;2023-02-14T10:05:22;96525.50;;;3.31;100.00
20119;BME280;10220;42.716;23.306;2023-02-14T10:10:34;96500.34;;;3.36;100.00
20119;BME280;10220;42.716;23.306;2023-02-14T10:15:38;96498.50;;;3.17;100.00
20119;BME280;10220;42.716;23.306;2023-02-14T10:20:48;96514.34;;;3.52;100.00
20119;BME280;10220;42.716;23.306;2023-02-14T10:26:26;96497.94;;;3.34;100.00
20119;BME280;10220;42.716;23.306;2023-02-14T10:28:54;96485.56;;;3.39;100.00
20119;BME280;10220;42.716;23.306;2023-02-14T10:31:34;96489.94;;;3.48;100.00
20119;BME280;10220;42.716;23.306;2023-02-14T10:34:07;96501.28;;;3.35;100.00
20119;BME280;10220;42.716;23.306;2023-02-14T10:40:02;96501.53;;;3.52;100.00
20119;BME280;10220;42.716;23.306;2023-02-14T10:47:58;96492.06;;;3.43;100.00
20119;BME280;10220;42.716;23.306;2023-02-14T10:56:01;96491.66;;;3.47;100.00
20119;BME280;10220;42.716;23.306;2023-02-14T10:58:31;96484.72;;;3.39;100.00
20119;BME280;10220;42.716;23.306;2023-02-14T11:01:06;96467.28;;;3.53;100.00
20119;BME280;10220;42.716;23.306;2023-02-14T11:03:56;96487.28;;;3.59;100.00
20119;BME280;10220;42.716;23.306;2023-02-14T11:06:28;96428.34;;;3.20;100.00
20119;BME280;10220;42.716;23.306;2023-02-14T11:08:53;96424.56;;;3.14;100.00
20119;BME280;10220;42.716;23.306;2023-02-14T11:11:57;96470.81;;;3.52;100.00
20119;BME280;10220;42.716;23.306;2023-02-14T11:14:41;96425.94;;;3.28;100.00
20119;BME280;10220;42.716;23.306;2023-02-14T11:17:28;96472.34;;;3.64;100.00
20119;BME280;10220;42.716;23.306;2023-02-14T11:20:00;96484.88;;;3.67;100.00
20119;BME280;10220;42.716;23.306;2023-02-14T11:22:32;96441.22;;;3.39;100.00
20119;BME280;10220;42.716;23.306;2023-02-14T11:25:10;96479.78;;;3.76;100.00
20119;BME280;10220;42.716;23.306;2023-02-14T11:27:43;96488.16;;;3.78;100.00
20119;BME280;10220;42.716;23.306;2023-02-14T11:30:34;96476.03;;;3.80;100.00
20119;BME280;10220;42.716;23.306;2023-02-14T11:33:01;96456.03;;;3.65;100.00
20119;BME280;10220;42.716;23.306;2023-02-14T11:35:29;96452.22;;;3.59;100.00
20119;BME280;10220;42.716;23.306;2023-02-14T11:38:01;96455.59;;;3.60;100.00
20119;BME280;10220;42.716;23.306;2023-02-14T11:42:53;96468.56;;;3.68;100.00
20119;BME280;10220;42.716;23.306;2023-02-14T11:45:33;96436.72;;;3.61;100.00
20119;BME280;10220;42.716;23.306;2023-02-14T11:48:20;96439.25;;;3.91;100.00
20119;BME280;10220;42.716;23.306;2023-02-14T11:51:07;96449.63;;;3.99;100.00
20119;BME280;10220;42.716;23.306;2023-02-14T11:53:49;96408.22;;;3.84;100.00
20119;BME280;10220;42.716;23.306;2023-02-14T11:56:18;96449.78;;;3.97;100.00
20119;BME280;10220;42.716;23.306;2023-02-14T12:01:25;96447.91;;;3.99;100.00
20119;BME280;10220;42.716;23.306;2023-02-14T12:03:54;96444.97;;;4.13;100.00
20119;BME280;10220;42.716;23.306;2023-02-14T12:06:26;96430.13;;;4.26;100.00
20119;BME280;10220;42.716;23.306;2023-02-14T12:09:25;96416.88;;;4.11;100.00
20119;BME280;10220;42.716;23.306;2023-02-14T12:11:57;96414.31;;;4.11;100.00
20119;BME280;10220;42.716;23.306;2023-02-14T12:14:27;96422.56;;;4.15;100.00
20119;BME280;10220;42.716;23.306;2023-02-14T12:20:02;96413.25;;;4.14;100.00
20119;BME280;10220;42.716;23.306;2023-02-14T12:22:38;96399.91;;;4.10;100.00
20119;BME280;10220;42.716;23.306;2023-02-14T12:25:16;96343.34;;;3.93;100.00
20119;BME280;10220;42.716;23.306;2023-02-14T12:27:53;96383.59;;;4.21;100.00
20119;BME280;10220;42.716;23.306;2023-02-14T12:30:22;96410.44;;;4.55;100.00
20119;BME280;10220;42.716;23.306;2023-02-14T12:32:53;96401.81;;;4.46;100.00
20119;BME280;10220;42.716;23.306;2023-02-14T12:35:59;96391.81;;;4.53;100.00
20119;BME280;10220;42.716;23.306;2023-02-14T12:43:52;96401.13;;;4.54;100.00
20119;BME280;10220;42.716;23.306;2023-02-14T12:51:47;96389.81;;;4.47;100.00
20119;BME280;10220;42.716;23.306;2023-02-14T13:08:30;96395.06;;;4.36;100.00
20119;BME280;10220;42.716;23.306;2023-02-14T13:13:52;96410.44;;;4.26;100.00
20119;BME280;10220;42.716;23.306;2023-02-14T13:22:03;96382.25;;;4.26;100.00
20119;BME280;10220;42.716;23.306;2023-02-14T13:24:38;96388.28;;;4.35;100.00
20119;BME280;10220;42.716;23.306;2023-02-14T13:27:06;96387.50;;;4.34;100.00
20119;BME280;10220;42.716;23.306;2023-02-14T13:29:48;96377.09;;;4.36;100.00
20119;BME280;10220;42.716;23.306;2023-02-14T13:32:19;96367.25;;;4.22;100.00
20119;BME280;10220;42.716;23.306;2023-02-14T13:34:47;96364.44;;;4.25;100.00
20119;BME280;10220;42.716;23.306;2023-02-14T13:37:17;96388.72;;;4.40;100.00
20119;BME280;10220;42.716;23.306;2023-02-14T13:40:08;96368.31;;;4.48;100.00
20119;BME280;10220;42.716;23.306;2023-02-14T13:48:24;96374.97;;;4.31;100.00
20119;BME280;10220;42.716;23.306;2023-02-14T13:51:07;96351.34;;;4.47;100.00
20119;BME280;10220;42.716;23.306;2023-02-14T13:53:46;96318.28;;;4.25;100.00
20119;BME280;10220;42.716;23.306;2023-02-14T13:56:33;96383.31;;;4.52;100.00
20119;BME280;10220;42.716;23.306;2023-02-14T13:59:02;96367.25;;;4.41;100.00
20119;BME280;10220;42.716;23.306;2023-02-14T14:04:08;96390.06;;;4.34;100.00
20119;BME280;10220;42.716;23.306;2023-02-14T14:17:35;96377.25;;;4.25;100.00
20119;BME280;10220;42.716;23.306;2023-02-14T14:22:53;96386.00;;;4.32;100.00
20119;BME280;10220;42.716;23.306;2023-02-14T14:27:57;96397.47;;;4.37;100.00
20119;BME280;10220;42.716;23.306;2023-02-14T14:30:27;96388.31;;;4.25;100.00
20119;BME280;10220;42.716;23.306;2023-02-14T14:32:55;96359.28;;;4.15;100.00
20119;BME280;10220;42.716;23.306;2023-02-14T14:35:36;96340.53;;;4.24;100.00
20119;BME280;10220;42.716;23.306;2023-02-14T14:38:02;96362.94;;;4.32;100.00
20119;BME280;10220;42.716;23.306;2023-02-14T14:40:33;96363.75;;;4.23;100.00
20119;BME280;10220;42.716;23.306;2023-02-14T14:43:29;96355.50;;;4.38;100.00
20119;BME280;10220;42.716;23.306;2023-02-14T14:45:56;96374.69;;;4.25;100.00
20119;BME280;10220;42.716;23.306;2023-02-14T14:48:33;96355.94;;;4.34;100.00
20119;BME280;10220;42.716;23.306;2023-02-14T14:51:03;96374.13;;;4.50;100.00
20119;BME280;10220;42.716;23.306;2023-02-14T14:53:38;96364.00;;;4.29;100.00
20119;BME280;10220;42.716;23.306;2023-02-14T14:56:12;96350.66;;;4.35;100.00
20119;BME280;10220;42.716;23.306;2023-02-14T14:58:39;96375.09;;;4.30;100.00
20119;BME280;10220;42.716;23.306;2023-02-14T15:01:10;96376.69;;;4.31;100.00
20119;BME280;10220;42.716;23.306;2023-02-14T15:03:37;96363.75;;;4.23;100.00
20119;BME280;10220;42.716;23.306;2023-02-14T15:08:30;96318.44;;;3.95;100.00
20119;BME280;10220;42.716;23.306;2023-02-14T15:11:03;96373.75;;;4.35;100.00
20119;BME280;10220;42.716;23.306;2023-02-14T15:13:42;96374.53;;;4.45;100.00
20119;BME280;10220;42.716;23.306;2023-02-14T15:16:22;96364.28;;;4.45;100.00
20119;BME280;10220;42.716;23.306;2023-02-14T15:18:50;96373.44;;;4.48;100.00
20119;BME280;10220;42.716;23.306;2023-02-14T15:21:17;96384.41;;;4.50;100.00
20119;BME280;10220;42.716;23.306;2023-02-14T15:23:42;96379.81;;;4.34;100.00
20119;BME280;10220;42.716;23.306;2023-02-14T15:26:37;96371.56;;;4.50;100.00
20119;BME280;10220;42.716;23.306;2023-02-14T15:29:04;96382.66;;;4.31;100.00
20119;BME280;10220;42.716;23.306;2023-02-14T15:31:34;96394.41;;;4.34;100.00
20119;BME280;10220;42.716;23.306;2023-02-14T15:34:02;96375.75;;;4.41;100.00
20119;BME280;10220;42.716;23.306;2023-02-14T15:36:30;96380.88;;;4.22;100.00
20119;BME280;10220;42.716;23.306;2023-02-14T15:38:57;96393.19;;;4.38;100.00
20119;BME280;10220;42.716;23.306;2023-02-14T15:41:25;96384.53;;;4.29;100.00